Time;durP1;ratioP1;P1;durP2;ratioP2;P2;SDS_P1;SDS_P2;PMS_P1;PMS_P2;Temp;Humidity;BMP_temperature;BMP_pressure;BME280_temperature;BME280_humidity;BME280_pressure;Samples;Min_cycle;Max_cycle;Signal;HPM_P1;HPM_P2
2022/03/05 00:01:39;;;;;;;21.90;12.13;;;-0.20;99.90;;;;;;5077926;28;20453;-53
2022/03/05 00:04:13;;;;;;;19.70;11.93;;;-0.10;99.90;;;;;;5078133;28;20488;-54
2022/03/05 00:06:48;;;;;;;20.73;11.57;;;-0.20;99.90;;;;;;5077549;28;20891;-59
2022/03/05 00:09:17;;;;;;;21.73;12.00;;;-0.20;99.90;;;;;;5078337;28;20432;-58
2022/03/05 00:11:45;;;;;;;20.13;11.90;;;-0.20;99.90;;;;;;5075141;28;21093;-53
2022/03/05 00:14:15;;;;;;;25.43;13.03;;;-0.30;99.90;;;;;;5078607;28;20730;-56
2022/03/05 00:16:45;;;;;;;25.13;13.00;;;-0.30;99.90;;;;;;5077152;28;20465;-55
2022/03/05 00:19:12;;;;;;;25.40;12.23;;;-0.20;99.90;;;;;;5077906;28;20525;-58
2022/03/05 00:21:39;;;;;;;22.20;12.67;;;-0.30;99.90;;;;;;5078666;28;20461;-57
2022/03/05 00:24:09;;;;;;;23.90;11.67;;;-0.30;99.90;;;;;;5078355;28;20785;-58
2022/03/05 00:26:41;;;;;;;26.67;13.57;;;-0.20;99.90;;;;;;5078714;28;20462;-57
2022/03/05 00:29:08;;;;;;;21.60;12.70;;;-0.20;99.90;;;;;;5078831;28;20552;-57
2022/03/05 00:31:35;;;;;;;24.20;12.80;;;-0.20;99.90;;;;;;5078982;28;20514;-55
2022/03/05 00:34:02;;;;;;;21.13;12.83;;;-0.30;99.90;;;;;;5078964;28;20467;-54
2022/03/05 00:36:30;;;;;;;25.10;11.93;;;-0.30;99.90;;;;;;5078386;28;20468;-57
2022/03/05 00:39:04;;;;;;;21.80;12.53;;;-0.30;99.90;;;;;;5077997;28;20469;-59
2022/03/05 00:41:31;;;;;;;27.57;13.47;;;-0.30;99.90;;;;;;5078212;28;20941;-60
2022/03/05 00:44:02;;;;;;;27.47;14.23;;;-0.40;99.90;;;;;;5077459;28;20439;-58
2022/03/05 00:46:33;;;;;;;35.00;15.27;;;-0.10;99.90;;;;;;5078522;28;20487;-60
2022/03/05 00:49:00;;;;;;;31.57;16.10;;;-0.20;99.90;;;;;;5077291;28;20439;-57
2022/03/05 00:51:29;;;;;;;31.43;16.00;;;-0.10;99.90;;;;;;5078158;28;20511;-57
2022/03/05 00:54:00;;;;;;;30.27;15.60;;;-0.10;1.00;;;;;;5078563;28;20517;-58
2022/03/05 00:56:32;;;;;;;31.23;15.50;;;-0.10;99.90;;;;;;5078360;28;20975;-57
2022/03/05 00:59:06;;;;;;;33.63;16.37;;;-0.10;99.90;;;;;;5076790;28;20467;-57
2022/03/05 01:01:36;;;;;;;34.17;17.73;;;-0.20;99.90;;;;;;5077474;28;20458;-58
2022/03/05 01:04:15;;;;;;;33.73;15.60;;;-0.10;99.90;;;;;;5078046;28;20462;-59
2022/03/05 01:06:42;;;;;;;37.33;18.00;;;-0.10;99.90;;;;;;5077265;28;20761;-60
2022/03/05 01:09:09;;;;;;;39.10;19.17;;;0.00;99.90;;;;;;5077043;28;20475;-60
2022/03/05 01:11:42;;;;;;;38.83;18.63;;;0.00;99.90;;;;;;5078096;28;20481;-55
2022/03/05 01:14:17;;;;;;;29.90;16.53;;;0.00;99.90;;;;;;5077159;28;20515;-58
2022/03/05 01:16:46;;;;;;;38.53;17.83;;;0.00;99.90;;;;;;5078298;28;20442;-60
2022/03/05 01:19:14;;;;;;;38.47;18.30;;;0.20;99.90;;;;;;5077911;28;20835;-58
2022/03/05 01:21:46;;;;;;;32.23;15.97;;;0.10;99.90;;;;;;5098448;28;20806;-59
2022/03/05 01:24:17;;;;;;;36.83;16.93;;;0.10;99.90;;;;;;5087655;28;20949;-57
2022/03/05 01:26:55;;;;;;;36.17;17.63;;;0.00;99.90;;;;;;5077643;28;20922;-59
2022/03/05 01:29:27;;;;;;;41.30;18.87;;;-0.10;99.90;;;;;;5077216;28;20465;-60
2022/03/05 01:31:56;;;;;;;34.20;17.50;;;0.00;99.90;;;;;;5078315;28;20866;-59
2022/03/05 01:34:23;;;;;;;32.57;17.07;;;0.00;99.90;;;;;;5076604;28;20872;-58
2022/03/05 01:36:50;;;;;;;37.13;16.90;;;0.00;99.90;;;;;;5076887;28;20446;-58
2022/03/05 01:39:22;;;;;;;32.53;16.83;;;-0.10;1.00;;;;;;5077558;28;20564;-60
2022/03/05 01:41:51;;;;;;;38.27;17.07;;;-0.10;1.00;;;;;;5077301;28;20462;-58
2022/03/05 01:44:20;;;;;;;39.87;17.00;;;-0.30;1.00;;;;;;5077151;28;20464;-56
2022/03/05 01:46:52;;;;;;;36.57;16.80;;;-0.20;1.00;;;;;;5077982;28;20456;-58
2022/03/05 01:49:19;;;;;;;28.60;16.00;;;-0.30;1.00;;;;;;5077662;28;20439;-58
2022/03/05 01:51:46;;;;;;;35.60;17.43;;;-0.30;1.00;;;;;;5076855;28;20905;-58
2022/03/05 01:54:14;;;;;;;33.97;17.70;;;-0.30;1.00;;;;;;5076843;28;20439;-55
2022/03/05 01:56:47;;;;;;;41.73;18.47;;;-0.30;1.00;;;;;;5076822;28;20480;-56
2022/03/05 01:59:26;;;;;;;37.27;17.10;;;-0.40;1.00;;;;;;5077241;28;20428;-51
2022/03/05 02:01:55;;;;;;;37.60;18.07;;;-0.30;1.00;;;;;;5076747;28;20480;-55
2022/03/05 02:04:26;;;;;;;38.70;18.37;;;-0.50;1.00;;;;;;5075979;28;20476;-55
2022/03/05 02:06:58;;;;;;;38.50;17.37;;;-0.50;1.00;;;;;;5076982;28;20461;-57
2022/03/05 02:09:26;;;;;;;36.43;16.47;;;-0.50;1.00;;;;;;5077335;28;20527;-55
2022/03/05 02:11:55;;;;;;;37.17;18.40;;;-0.40;1.00;;;;;;5075900;28;20470;-54
2022/03/05 02:14:22;;;;;;;37.80;18.70;;;-0.40;1.00;;;;;;5076420;28;20471;-55
2022/03/05 02:16:50;;;;;;;42.80;17.07;;;-0.40;1.00;;;;;;5076804;28;20894;-57
2022/03/05 02:19:21;;;;;;;38.07;17.60;;;-0.40;1.00;;;;;;5078462;28;20490;-53
2022/03/05 02:22:00;;;;;;;38.60;17.73;;;-0.40;1.00;;;;;;5097415;28;20471;-55
2022/03/05 02:24:37;;;;;;;42.80;17.50;;;-0.50;1.00;;;;;;5057201;28;20465;-54
2022/03/05 02:27:05;;;;;;;36.53;17.90;;;-0.60;1.00;;;;;;5063311;28;20460;-58
2022/03/05 02:29:33;;;;;;;35.93;16.37;;;-0.60;1.00;;;;;;5077312;28;20465;-54
2022/03/05 02:32:00;;;;;;;36.87;18.37;;;-0.60;1.00;;;;;;5077267;28;20510;-55
2022/03/05 02:34:30;;;;;;;34.27;17.03;;;-0.60;1.00;;;;;;5076356;28;20464;-58
2022/03/05 02:37:01;;;;;;;37.03;18.70;;;-0.60;1.00;;;;;;5077009;28;20456;-54
2022/03/05 02:39:30;;;;;;;31.97;16.83;;;-0.60;1.00;;;;;;5077075;28;20876;-55
2022/03/05 02:42:00;;;;;;;39.27;19.10;;;-0.60;1.00;;;;;;5077023;28;20547;-56
2022/03/05 02:44:47;;;;;;;37.83;18.70;;;-0.70;1.00;;;;;;5076273;28;20465;-56
2022/03/05 02:47:19;;;;;;;30.53;17.40;;;-0.70;1.00;;;;;;5076881;28;20534;-59
2022/03/05 02:49:46;;;;;;;33.70;17.53;;;-0.70;1.00;;;;;;5076515;28;20465;-59
2022/03/05 02:52:21;;;;;;;38.73;17.20;;;-0.70;1.00;;;;;;5076634;28;20487;-53
2022/03/05 02:54:48;;;;;;;40.60;18.50;;;-0.70;1.00;;;;;;5075999;28;20461;-56
2022/03/05 02:57:18;;;;;;;39.23;19.03;;;-0.80;1.00;;;;;;5076759;28;20445;-54
2022/03/05 02:59:45;;;;;;;32.87;17.27;;;-0.80;1.00;;;;;;5075846;28;20963;-59
2022/03/05 03:02:14;;;;;;;37.40;19.13;;;-0.70;1.00;;;;;;5076343;28;20761;-54
2022/03/05 03:04:44;;;;;;;31.97;15.90;;;-0.80;1.00;;;;;;5075707;28;20484;-52
2022/03/05 03:07:14;;;;;;;37.53;16.83;;;-0.80;1.00;;;;;;5076519;28;20440;-54
2022/03/05 03:09:44;;;;;;;34.53;16.33;;;-0.80;1.00;;;;;;5075909;28;20461;-58
2022/03/05 03:12:17;;;;;;;36.30;20.07;;;-0.80;1.00;;;;;;5076336;28;20457;-58
2022/03/05 03:14:44;;;;;;;36.20;16.47;;;-0.80;1.00;;;;;;5075751;28;20467;-56
2022/03/05 03:17:19;;;;;;;43.23;17.13;;;-0.80;1.00;;;;;;5075823;28;20555;-59
2022/03/05 03:19:49;;;;;;;34.50;16.53;;;-0.80;1.00;;;;;;5075506;28;20568;-58
2022/03/05 03:22:20;;;;;;;38.97;16.23;;;-0.70;1.00;;;;;;5076335;28;20514;-59
2022/03/05 03:24:53;;;;;;;34.53;16.37;;;-0.70;1.00;;;;;;5078916;28;20465;-58
2022/03/05 03:27:27;;;;;;;34.70;16.80;;;-0.60;1.00;;;;;;5080104;28;20514;-57
2022/03/05 03:29:54;;;;;;;28.63;14.90;;;-0.60;1.00;;;;;;5080260;28;20480;-56
2022/03/05 03:32:24;;;;;;;36.83;19.17;;;-0.70;1.00;;;;;;5079927;28;20473;-58
2022/03/05 03:34:57;;;;;;;38.73;17.93;;;-0.80;1.00;;;;;;5080338;28;20460;-56
2022/03/05 03:37:29;;;;;;;37.20;17.23;;;-0.80;1.00;;;;;;5079925;28;20515;-55
2022/03/05 03:39:58;;;;;;;32.70;17.40;;;-1.00;1.00;;;;;;5079932;28;20582;-57
2022/03/05 03:42:29;;;;;;;34.47;17.17;;;-1.00;1.00;;;;;;5080395;28;20511;-58
2022/03/05 03:44:56;;;;;;;40.70;18.47;;;-1.00;1.00;;;;;;5079476;28;20797;-59
2022/03/05 03:47:25;;;;;;;38.10;17.50;;;-0.90;1.00;;;;;;5078109;28;20432;-56
2022/03/05 03:49:54;;;;;;;34.03;16.83;;;-1.00;1.00;;;;;;5079431;28;20816;-58
2022/03/05 03:52:23;;;;;;;38.87;17.77;;;-1.00;1.00;;;;;;5078973;28;20464;-55
2022/03/05 03:54:52;;;;;;;39.77;18.60;;;-1.00;1.00;;;;;;5079419;28;20894;-58
2022/03/05 03:57:23;;;;;;;36.40;18.23;;;-1.00;1.00;;;;;;5078967;28;20780;-53
2022/03/05 03:59:52;;;;;;;34.53;16.40;;;-1.00;1.00;;;;;;5079190;28;20458;-58
2022/03/05 04:02:20;;;;;;;28.93;17.70;;;-0.90;1.00;;;;;;5079107;28;20607;-53
2022/03/05 04:04:50;;;;;;;35.33;17.67;;;-0.80;1.00;;;;;;5079409;28;20464;-55
2022/03/05 04:10:04;;;;;;;34.97;16.87;;;-0.80;1.00;;;;;;5079249;28;20908;-55
2022/03/05 04:12:34;;;;;;;30.90;16.30;;;-0.80;1.00;;;;;;5078734;28;20457;-57
2022/03/05 04:15:01;;;;;;;33.90;16.93;;;-0.80;1.00;;;;;;5079693;28;20468;-58
2022/03/05 04:17:28;;;;;;;30.60;15.70;;;-0.80;1.00;;;;;;5079533;28;20465;-59
2022/03/05 04:19:55;;;;;;;33.23;17.07;;;-0.80;1.00;;;;;;5085902;28;20483;-59
2022/03/05 04:22:27;;;;;;;38.90;16.23;;;-0.80;1.00;;;;;;5091337;28;20487;-58
2022/03/05 04:24:54;;;;;;;35.73;17.10;;;-0.90;1.00;;;;;;5079647;28;20461;-55
2022/03/05 04:30:04;;;;;;;35.47;16.17;;;-0.80;1.00;;;;;;5058803;28;20781;-55
2022/03/05 04:32:37;;;;;;;30.67;14.90;;;-0.90;1.00;;;;;;5075170;28;20459;-56
2022/03/05 04:35:05;;;;;;;34.43;15.63;;;-0.90;1.00;;;;;;5079607;28;20461;-53
2022/03/05 04:37:32;;;;;;;33.67;16.50;;;-1.00;1.00;;;;;;5079066;28;20430;-55
2022/03/05 04:39:59;;;;;;;33.07;16.80;;;-1.00;1.00;;;;;;5078612;28;20526;-53
2022/03/05 04:42:26;;;;;;;35.80;17.77;;;-1.00;1.00;;;;;;5078099;28;20547;-53
2022/03/05 04:44:58;;;;;;;35.53;15.47;;;-1.10;1.00;;;;;;5078737;28;20482;-53
2022/03/05 04:47:31;;;;;;;34.03;17.23;;;-1.00;1.00;;;;;;5077991;28;20440;-54
2022/03/05 04:50:00;;;;;;;35.60;17.97;;;-1.10;1.00;;;;;;5059132;28;20831;-56
2022/03/05 04:52:27;;;;;;;31.03;15.83;;;-1.20;1.00;;;;;;5064061;28;20464;-58
2022/03/05 04:54:58;;;;;;;32.10;17.70;;;-1.30;1.00;;;;;;5078224;28;20906;-58
2022/03/05 04:57:28;;;;;;;27.70;14.80;;;-1.30;1.00;;;;;;5078845;28;20443;-52
2022/03/05 04:59:58;;;;;;;37.80;15.90;;;-1.30;1.00;;;;;;5077287;28;20554;-54
2022/03/05 05:02:28;;;;;;;38.57;17.07;;;-1.40;1.00;;;;;;5077326;28;20489;-51
2022/03/05 05:04:55;;;;;;;34.53;17.20;;;-1.30;1.00;;;;;;5078086;28;20443;-56
2022/03/05 05:07:27;;;;;;;33.10;16.20;;;-1.30;1.00;;;;;;5078217;28;20807;-58
2022/03/05 05:09:54;;;;;;;37.20;16.83;;;-1.10;1.00;;;;;;5077554;28;20550;-58
2022/03/05 05:12:24;;;;;;;34.07;16.60;;;-1.10;1.00;;;;;;5077527;28;20468;-55
2022/03/05 05:14:51;;;;;;;40.77;18.93;;;-1.20;1.00;;;;;;5077552;28;20473;-55
2022/03/05 05:17:18;;;;;;;33.30;16.87;;;-1.10;1.00;;;;;;5078335;28;20466;-54
2022/03/05 05:19:47;;;;;;;34.37;15.47;;;-1.10;1.00;;;;;;5076782;28;20550;-51
2022/03/05 05:22:22;;;;;;;36.43;17.77;;;-1.10;1.00;;;;;;5077377;28;20492;-52
2022/03/05 05:24:52;;;;;;;38.50;17.80;;;-1.20;1.00;;;;;;5077355;28;20465;-53
2022/03/05 05:27:22;;;;;;;38.10;15.43;;;-1.30;1.00;;;;;;5077871;28;20819;-53
2022/03/05 05:29:49;;;;;;;29.70;14.90;;;-1.20;1.00;;;;;;5076908;28;20465;-52
2022/03/05 05:32:16;;;;;;;34.87;16.40;;;-1.10;1.00;;;;;;5076674;28;20461;-53
2022/03/05 05:34:48;;;;;;;31.67;16.63;;;-1.10;1.00;;;;;;5077289;28;20463;-54
2022/03/05 05:37:19;;;;;;;29.37;16.23;;;-1.10;1.00;;;;;;5078215;28;20476;-58
2022/03/05 05:39:46;;;;;;;31.57;16.47;;;-1.10;1.00;;;;;;5079399;28;20471;-55
2022/03/05 05:42:13;;;;;;;30.87;16.23;;;-1.10;1.00;;;;;;5078989;28;20489;-57
2022/03/05 05:44:40;;;;;;;33.83;16.33;;;-1.10;1.00;;;;;;5079268;28;20464;-57
2022/03/05 05:47:14;;;;;;;32.73;15.77;;;-1.10;1.00;;;;;;5078506;28;20461;-56
2022/03/05 05:49:41;;;;;;;34.07;17.23;;;-1.10;1.00;;;;;;5079065;28;20470;-55
2022/03/05 05:52:08;;;;;;;31.20;16.50;;;-0.90;1.00;;;;;;5078386;28;20886;-53
2022/03/05 05:54:37;;;;;;;30.67;16.37;;;-1.00;1.00;;;;;;5079110;28;20913;-55
2022/03/05 05:57:04;;;;;;;39.23;17.27;;;-1.00;1.00;;;;;;5078659;28;20902;-56
2022/03/05 05:59:32;;;;;;;36.13;16.80;;;-1.10;1.00;;;;;;5077162;28;20461;-51
2022/03/05 06:02:07;;;;;;;33.07;17.07;;;-1.20;1.00;;;;;;5076744;28;20561;-51
2022/03/05 06:04:34;;;;;;;31.90;16.30;;;-1.20;1.00;;;;;;5077412;28;20467;-58
2022/03/05 06:07:01;;;;;;;34.93;16.00;;;-1.30;1.00;;;;;;5076157;28;20863;-49
2022/03/05 06:09:28;;;;;;;32.00;15.90;;;-1.30;1.00;;;;;;5076713;28;20435;-52
2022/03/05 06:11:59;;;;;;;30.47;16.40;;;-1.40;1.00;;;;;;5077538;28;20457;-52
2022/03/05 06:14:34;;;;;;;32.83;15.93;;;-1.30;1.00;;;;;;5078461;28;20828;-53
2022/03/05 06:17:01;;;;;;;32.43;17.83;;;-1.30;1.00;;;;;;5078497;28;20783;-57
2022/03/05 06:19:35;;;;;;;30.00;15.50;;;-1.20;1.00;;;;;;5077954;28;20477;-54
2022/03/05 06:22:06;;;;;;;30.93;16.80;;;-1.20;1.00;;;;;;5078396;28;20534;-59
2022/03/05 06:24:33;;;;;;;32.00;16.60;;;-1.10;1.00;;;;;;5078869;28;20469;-58
2022/03/05 06:27:04;;;;;;;30.80;17.17;;;-1.10;1.00;;;;;;5078692;28;20517;-55
2022/03/05 06:29:34;;;;;;;34.27;17.77;;;-1.10;1.00;;;;;;5077406;28;20504;-53
2022/03/05 06:32:09;;;;;;;30.90;15.73;;;-1.00;1.00;;;;;;5077162;28;20464;-55
2022/03/05 06:34:36;;;;;;;27.20;14.50;;;-1.00;1.00;;;;;;5077061;28;20435;-56
2022/03/05 06:37:04;;;;;;;31.33;16.00;;;-0.90;1.00;;;;;;5076564;28;20468;-52
2022/03/05 06:39:31;;;;;;;28.80;16.23;;;-0.80;1.00;;;;;;5078138;28;20465;-60
2022/03/05 06:41:59;;;;;;;32.60;15.50;;;-0.70;1.00;;;;;;5077503;28;20808;-58
2022/03/05 06:44:28;;;;;;;32.47;16.57;;;-0.50;1.00;;;;;;5078428;28;20464;-59
2022/03/05 06:46:57;;;;;;;33.47;16.30;;;-0.40;1.00;;;;;;5078161;28;20468;-56
2022/03/05 06:49:33;;;;;;;34.53;16.30;;;-0.50;1.00;;;;;;5077403;28;20497;-60
2022/03/05 06:52:18;;;;;;;29.30;16.67;;;-0.40;1.00;;;;;;5078400;28;20468;-56
2022/03/05 06:54:50;;;;;;;31.03;16.97;;;-0.40;1.00;;;;;;5078084;28;20563;-58
2022/03/05 06:57:26;;;;;;;29.00;15.80;;;-0.30;1.00;;;;;;5075339;28;20834;-57
2022/03/05 06:59:56;;;;;;;30.07;16.10;;;-0.20;1.00;;;;;;5081429;28;20563;-57
2022/03/05 07:02:26;;;;;;;31.43;18.10;;;-0.20;1.00;;;;;;5081193;28;20789;-57
2022/03/05 07:05:00;;;;;;;28.53;16.90;;;-0.10;1.00;;;;;;5082093;28;20461;-54
2022/03/05 07:07:27;;;;;;;30.83;16.10;;;-0.10;1.00;;;;;;5081442;28;20841;-57
2022/03/05 07:09:57;;;;;;;31.20;16.70;;;-0.10;1.00;;;;;;5081873;28;20468;-59
2022/03/05 07:12:30;;;;;;;31.30;17.37;;;0.00;1.00;;;;;;5081456;28;20468;-56
2022/03/05 07:15:03;;;;;;;27.00;15.37;;;0.10;1.00;;;;;;5080017;28;20482;-56
2022/03/05 07:17:32;;;;;;;29.00;14.90;;;0.20;1.00;;;;;;5079528;28;20557;-60
2022/03/05 07:20:01;;;;;;;28.27;16.27;;;0.50;1.00;;;;;;5078856;28;20526;-57
2022/03/05 07:22:30;;;;;;;29.40;15.40;;;0.60;1.00;;;;;;5079048;28;20468;-60
2022/03/05 07:24:58;;;;;;;27.73;15.40;;;0.70;1.00;;;;;;5079879;28;20944;-61
2022/03/05 07:27:29;;;;;;;36.00;16.70;;;0.90;1.00;;;;;;5079844;28;20956;-60
2022/03/05 07:30:00;;;;;;;30.30;15.13;;;1.10;1.00;;;;;;5079136;28;20515;-61
2022/03/05 07:32:31;;;;;;;27.00;14.70;;;1.30;99.90;;;;;;5076572;28;20456;-59
2022/03/05 07:35:01;;;;;;;29.27;17.37;;;1.50;99.90;;;;;;5078972;28;20454;-60
2022/03/05 07:37:32;;;;;;;33.33;16.60;;;1.80;99.90;;;;;;5080269;28;20468;-61
2022/03/05 07:39:59;;;;;;;29.00;14.77;;;2.10;99.90;;;;;;5078838;28;20777;-60
2022/03/05 07:42:31;;;;;;;31.13;17.17;;;2.30;99.90;;;;;;5078119;28;20822;-61
2022/03/05 07:45:00;;;;;;;30.80;15.70;;;2.50;99.90;;;;;;5078219;28;20894;-61
2022/03/05 07:47:29;;;;;;;31.23;15.33;;;2.70;99.90;;;;;;5078535;28;20451;-60
2022/03/05 07:50:00;;;;;;;29.03;15.17;;;2.90;99.90;;;;;;5077892;28;20461;-61
2022/03/05 07:52:32;;;;;;;29.33;16.83;;;3.20;99.90;;;;;;5078219;28;20477;-61
2022/03/05 07:55:02;;;;;;;29.40;16.57;;;3.40;99.90;;;;;;5078105;28;20923;-61
2022/03/05 07:57:38;;;;;;;24.63;15.10;;;3.50;99.90;;;;;;5079333;28;20793;-62
2022/03/05 08:00:10;;;;;;;25.17;15.37;;;3.40;99.90;;;;;;5065022;28;20564;-62
2022/03/05 08:02:40;;;;;;;26.70;16.30;;;3.80;99.90;;;;;;5079369;28;20495;-63
2022/03/05 08:05:10;;;;;;;26.17;15.43;;;4.10;99.90;;;;;;5079369;28;20456;-63
2022/03/05 08:07:39;;;;;;;23.40;15.33;;;4.20;99.90;;;;;;5078900;28;20512;-63
2022/03/05 08:10:09;;;;;;;23.23;16.40;;;4.30;99.90;;;;;;5079148;28;20927;-63
2022/03/05 08:12:39;;;;;;;27.33;17.50;;;4.40;99.90;;;;;;5079029;28;20522;-62
2022/03/05 08:15:14;;;;;;;23.53;17.00;;;4.60;99.90;;;;;;5072719;28;20476;-62
2022/03/05 08:17:54;;;;;;;24.43;15.83;;;4.80;99.90;;;;;;5059474;28;20466;-59
2022/03/05 08:20:22;;;;;;;27.90;17.33;;;5.10;99.90;;;;;;5079030;28;20571;-61
2022/03/05 08:22:57;;;;;;;22.37;15.00;;;5.40;99.90;;;;;;5098773;28;20542;-61
2022/03/05 08:25:30;;;;;;;23.67;15.43;;;5.70;99.90;;;;;;5099569;28;20463;-59
2022/03/05 08:27:57;;;;;;;26.07;16.37;;;6.00;99.90;;;;;;5076728;28;20500;-59
2022/03/05 08:30:43;;;;;;;28.43;16.40;;;6.00;99.90;;;;;;5076759;28;20431;-60
2022/03/05 08:33:14;;;;;;;22.50;16.13;;;5.90;99.90;;;;;;5078151;28;20894;-62
2022/03/05 08:35:40;;;;;;;24.87;14.97;;;6.00;99.90;;;;;;5078200;28;20448;-60
2022/03/05 08:38:08;;;;;;;23.37;15.40;;;6.10;99.90;;;;;;5078576;28;20522;-60
2022/03/05 08:40:40;;;;;;;19.93;14.40;;;6.40;99.90;;;;;;5078254;28;20807;-57
2022/03/05 08:43:10;;;;;;;21.63;15.20;;;6.50;99.90;;;;;;5077197;28;20485;-58
2022/03/05 08:45:53;;;;;;;24.87;16.43;;;7.00;99.90;;;;;;5078207;28;20770;-55
2022/03/05 08:48:20;;;;;;;23.77;16.80;;;7.20;99.90;;;;;;5077968;28;20465;-59
2022/03/05 08:50:50;;;;;;;21.60;15.10;;;7.20;99.90;;;;;;5078037;28;20465;-58
2022/03/05 08:53:19;;;;;;;23.43;15.80;;;7.50;99.90;;;;;;5078298;28;20511;-59
2022/03/05 08:55:52;;;;;;;21.30;14.90;;;7.70;99.90;;;;;;5078097;28;20493;-57
2022/03/05 08:58:22;;;;;;;21.63;15.23;;;7.90;99.90;;;;;;5078086;28;20468;-53
2022/03/05 09:01:05;;;;;;;21.00;14.07;;;8.00;99.90;;;;;;5077692;28;20679;-55
2022/03/05 09:03:35;;;;;;;23.50;16.80;;;8.20;99.90;;;;;;5078375;28;20574;-56
2022/03/05 09:06:05;;;;;;;22.03;15.70;;;8.20;99.90;;;;;;5078141;28;20534;-57
2022/03/05 09:08:37;;;;;;;21.83;15.73;;;8.40;99.90;;;;;;5078264;28;20944;-56
2022/03/05 09:11:22;;;;;;;22.70;16.63;;;8.10;99.90;;;;;;5077656;28;20465;-57
2022/03/05 09:13:52;;;;;;;21.53;15.53;;;8.30;99.90;;;;;;5076894;28;20875;-53
2022/03/05 09:16:26;;;;;;;24.00;15.90;;;8.40;99.90;;;;;;5077809;28;20469;-57
2022/03/05 09:18:53;;;;;;;20.93;16.10;;;8.70;99.90;;;;;;5077326;28;20587;-54
2022/03/05 09:21:20;;;;;;;24.80;15.53;;;8.70;99.90;;;;;;5076886;28;20486;-60
2022/03/05 09:23:50;;;;;;;22.53;17.10;;;9.00;99.90;;;;;;5077351;28;20484;-53
2022/03/05 09:26:29;;;;;;;20.10;14.50;;;9.20;99.90;;;;;;5077290;28;20508;-53
2022/03/05 09:29:07;;;;;;;19.30;15.00;;;9.40;99.90;;;;;;5077885;28;20457;-53
2022/03/05 09:31:40;;;;;;;21.03;15.23;;;9.50;99.90;;;;;;5078051;28;20471;-56
2022/03/05 09:34:10;;;;;;;18.50;14.60;;;9.60;99.90;;;;;;5077762;28;20461;-58
2022/03/05 09:36:48;;;;;;;20.70;13.67;;;9.40;99.90;;;;;;5077351;28;20819;-60
2022/03/05 09:39:17;;;;;;;20.47;14.97;;;9.00;99.90;;;;;;5077597;28;20917;-57
2022/03/05 09:41:49;;;;;;;20.33;14.63;;;9.10;99.90;;;;;;5077705;28;20461;-57
2022/03/05 09:44:27;;;;;;;22.87;14.17;;;9.10;99.90;;;;;;5076401;28;20500;-60
2022/03/05 09:47:04;;;;;;;22.97;15.67;;;9.30;99.90;;;;;;5076187;28;20784;-57
2022/03/05 09:49:34;;;;;;;18.60;13.70;;;9.40;99.90;;;;;;5074813;28;20511;-54
2022/03/05 09:52:09;;;;;;;22.00;15.07;;;9.50;99.90;;;;;;5075523;28;20461;-57
2022/03/05 09:54:37;;;;;;;21.50;14.67;;;9.80;99.90;;;;;;5076533;28;20525;-60
2022/03/05 09:57:10;;;;;;;19.60;14.60;;;10.10;99.90;;;;;;5077653;28;20465;-57
2022/03/05 09:59:38;;;;;;;19.60;14.50;;;10.10;99.90;;;;;;5077412;28;20461;-56
2022/03/05 10:02:07;;;;;;;19.80;15.00;;;10.30;99.90;;;;;;5077160;28;20898;-61
2022/03/05 10:04:35;;;;;;;19.70;15.10;;;10.30;99.90;;;;;;5077107;28;20521;-59
2022/03/05 10:07:16;;;;;;;19.63;15.00;;;10.40;99.90;;;;;;5077191;28;20461;-61
2022/03/05 10:09:46;;;;;;;20.43;14.50;;;10.00;99.90;;;;;;5076528;28;20465;-59
2022/03/05 10:12:32;;;;;;;17.50;13.60;;;10.20;99.90;;;;;;5076059;28;20488;-58
2022/03/05 10:15:08;;;;;;;24.33;16.20;;;10.00;99.90;;;;;;5076841;28;20461;-58
2022/03/05 10:18:01;;;;;;;19.60;14.93;;;10.20;99.90;;;;;;5076286;28;20460;-60
2022/03/05 10:20:46;;;;;;;21.83;15.40;;;10.10;99.90;;;;;;5087548;28;20930;-59
2022/03/05 10:23:13;;;;;;;17.47;14.67;;;10.00;99.90;;;;;;5097228;28;20514;-57
2022/03/05 10:25:45;;;;;;;17.83;12.93;;;10.20;99.90;;;;;;5097133;28;20904;-58
2022/03/05 10:28:13;;;;;;;17.83;14.53;;;10.70;99.90;;;;;;5097006;28;20480;-61
2022/03/05 10:30:46;;;;;;;16.43;13.00;;;10.70;99.90;;;;;;5096636;28;20513;-56
2022/03/05 10:33:29;;;;;;;16.73;13.17;;;10.90;99.90;;;;;;5099502;28;20853;-60
2022/03/05 10:35:59;;;;;;;18.53;14.43;;;10.80;99.90;;;;;;5100999;28;20460;-58
2022/03/05 10:38:46;;;;;;;18.27;13.60;;;11.00;99.90;;;;;;5100613;28;20548;-57
2022/03/05 10:41:14;;;;;;;17.13;13.70;;;10.80;99.90;;;;;;5100344;28;20455;-60
2022/03/05 10:43:42;;;;;;;20.73;14.40;;;11.10;99.90;;;;;;5100947;28;20491;-60
2022/03/05 10:46:09;;;;;;;15.47;12.73;;;11.30;99.90;;;;;;5100236;28;20460;-59
2022/03/05 10:48:41;;;;;;;18.40;14.03;;;11.60;99.90;;;;;;5101034;28;20509;-61
2022/03/05 10:51:14;;;;;;;17.77;14.80;;;11.80;99.90;;;;;;5101391;28;20460;-59
2022/03/05 10:53:46;;;;;;;17.50;12.37;;;11.80;99.90;;;;;;5101211;28;20456;-58
2022/03/05 10:56:31;;;;;;;18.07;13.17;;;11.70;99.90;;;;;;5100426;28;20460;-58
2022/03/05 10:59:12;;;;;;;18.33;13.67;;;11.70;99.90;;;;;;5099956;28;20468;-60
2022/03/05 11:01:40;;;;;;;17.63;13.93;;;11.60;99.90;;;;;;5087772;28;20465;-60
2022/03/05 11:04:20;;;;;;;16.60;13.70;;;11.30;99.90;;;;;;5080413;28;20542;-60
2022/03/05 11:06:47;;;;;;;16.73;12.93;;;11.30;99.90;;;;;;5079834;28;20540;-56
2022/03/05 11:09:14;;;;;;;19.50;12.93;;;11.40;99.90;;;;;;5079761;28;20468;-60
2022/03/05 11:11:46;;;;;;;19.20;14.37;;;11.20;99.90;;;;;;5079893;28;20457;-59
2022/03/05 11:14:15;;;;;;;17.20;13.20;;;11.40;99.90;;;;;;5078755;28;20457;-60
2022/03/05 11:16:52;;;;;;;20.43;13.70;;;11.10;99.90;;;;;;5078665;28;20472;-57
2022/03/05 11:19:33;;;;;;;16.20;12.63;;;11.20;99.90;;;;;;5080387;28;20484;-59
2022/03/05 11:22:02;;;;;;;16.40;12.67;;;11.70;99.90;;;;;;5099575;28;20452;-60
2022/03/05 11:24:33;;;;;;;17.03;12.03;;;11.40;99.90;;;;;;5100310;28;20499;-60
2022/03/05 11:27:03;;;;;;;15.80;12.63;;;11.60;99.90;;;;;;5099580;28;20468;-61
2022/03/05 11:29:51;;;;;;;14.03;12.40;;;11.70;99.90;;;;;;5100013;28;20456;-60
2022/03/05 11:32:23;;;;;;;15.33;12.03;;;12.00;99.90;;;;;;5085716;28;20902;-60
2022/03/05 11:34:53;;;;;;;15.23;11.90;;;11.80;99.90;;;;;;5079191;28;20458;-60
2022/03/05 11:37:26;;;;;;;15.30;11.90;;;11.60;99.90;;;;;;5059640;28;20767;-60
2022/03/05 11:39:53;;;;;;;16.00;12.17;;;11.60;99.90;;;;;;5064233;28;20854;-58
2022/03/05 11:42:34;;;;;;;20.30;14.90;;;11.90;99.90;;;;;;5077260;28;20462;-60
2022/03/05 11:45:02;;;;;;;14.93;12.20;;;12.00;99.90;;;;;;5078085;28;20457;-57
2022/03/05 11:47:35;;;;;;;17.67;13.53;;;12.40;99.90;;;;;;5077902;28;20465;-61
2022/03/05 11:50:23;;;;;;;19.77;13.47;;;12.70;99.90;;;;;;5078434;28;20560;-58
2022/03/05 11:53:07;;;;;;;15.97;12.30;;;12.50;99.90;;;;;;5078468;28;20480;-58
2022/03/05 11:55:42;;;;;;;14.10;12.20;;;12.70;99.90;;;;;;5078602;28;20468;-53
2022/03/05 11:58:34;;;;;;;14.50;12.73;;;12.90;99.90;;;;;;5077782;28;20771;-58
2022/03/05 12:01:35;;;;;;;17.77;12.97;;;13.40;99.90;;;;;;5079085;28;20937;-59
2022/03/05 12:04:28;;;;;;;14.90;12.63;;;13.20;99.90;;;;;;5078149;28;20489;-57
2022/03/05 12:07:16;;;;;;;15.57;12.00;;;13.20;99.90;;;;;;5076971;28;20493;-57
2022/03/05 12:09:56;;;;;;;14.37;12.87;;;13.00;99.90;;;;;;5078422;28;20543;-59
2022/03/05 12:12:28;;;;;;;16.37;12.83;;;13.30;99.90;;;;;;5078770;28;20461;-58
2022/03/05 12:15:16;;;;;;;15.00;11.67;;;13.40;99.90;;;;;;5077937;28;20899;-59
2022/03/05 12:17:50;;;;;;;15.90;13.10;;;13.50;99.90;;;;;;5079130;28;20461;-59
2022/03/05 12:20:20;;;;;;;17.40;12.37;;;13.50;99.90;;;;;;5078134;28;20558;-59
2022/03/05 12:23:08;;;;;;;14.00;12.03;;;13.70;99.90;;;;;;5078149;28;20910;-58
2022/03/05 12:25:40;;;;;;;14.20;12.23;;;14.10;99.90;;;;;;5078027;28;20512;-59
2022/03/05 12:28:15;;;;;;;16.90;13.03;;;14.00;99.90;;;;;;5076522;28;20457;-58
2022/03/05 12:30:47;;;;;;;14.13;12.27;;;14.20;99.90;;;;;;5078038;28;20462;-59
2022/03/05 12:33:18;;;;;;;15.27;12.90;;;14.70;99.90;;;;;;5078328;28;20513;-59
2022/03/05 12:35:54;;;;;;;13.43;12.03;;;14.80;99.90;;;;;;5077609;28;20878;-59
2022/03/05 12:38:29;;;;;;;13.40;11.70;;;14.60;99.90;;;;;;5078065;28;20484;-59
2022/03/05 12:40:59;;;;;;;13.97;12.47;;;14.80;99.90;;;;;;5078406;28;20465;-59
2022/03/05 12:43:26;;;;;;;15.93;12.50;;;14.80;99.90;;;;;;5077495;28;20537;-59
2022/03/05 12:45:55;;;;;;;14.40;12.03;;;15.00;99.90;;;;;;5078017;28;20532;-59
2022/03/05 12:48:23;;;;;;;15.57;13.67;;;14.60;99.90;;;;;;5077738;28;20465;-59
2022/03/05 12:50:51;;;;;;;23.57;17.87;;;14.20;99.90;;;;;;5076812;28;20465;-59
2022/03/05 12:53:19;;;;;;;15.00;13.03;;;14.00;99.90;;;;;;5060166;28;20528;-59
2022/03/05 12:55:49;;;;;;;15.03;13.03;;;14.00;99.90;;;;;;5075388;28;20765;-59
2022/03/05 12:58:21;;;;;;;12.77;11.37;;;14.00;99.90;;;;;;5071965;28;20768;-59
2022/03/05 13:00:53;;;;;;;13.23;11.87;;;13.90;99.90;;;;;;5071669;28;20514;-59